createdAt,value
2018-09-01T00:00:49.231Z,20.19
2018-09-01T00:01:49.219Z,20.19
2018-09-01T00:02:49.208Z,20.19
2018-09-01T00:03:49.199Z,20.17
2018-09-01T00:04:49.208Z,20.16
2018-09-01T00:05:49.175Z,20.19
2018-09-01T00:06:49.161Z,20.15
2018-09-01T00:07:49.152Z,20.20
2018-09-01T00:08:49.143Z,20.10
2018-09-01T00:09:49.158Z,20.16
2018-09-01T00:10:49.117Z,20.12
2018-09-01T00:11:49.107Z,20.16
2018-09-01T00:12:49.096Z,20.17
2018-09-01T00:13:49.086Z,20.10
2018-09-01T00:14:49.099Z,20.13
2018-09-01T00:15:49.061Z,20.13
2018-09-01T00:16:49.052Z,20.15
2018-09-01T00:17:49.041Z,20.08
2018-09-01T00:18:49.028Z,20.07
2018-09-01T00:19:49.041Z,20.01
2018-09-01T00:20:49.007Z,20.02
2018-09-01T00:21:48.997Z,19.98
2018-09-01T00:22:48.984Z,20.00
2018-09-01T00:23:48.975Z,19.95
2018-09-01T00:24:48.964Z,19.98
2018-09-01T00:25:48.977Z,20.02
2018-09-01T00:26:48.941Z,20.00
2018-09-01T00:27:48.930Z,20.00
2018-09-01T00:28:48.917Z,19.97
2018-09-01T00:29:48.911Z,20.04
2018-09-01T00:30:48.919Z,20.04
2018-09-01T00:31:48.884Z,20.04
2018-09-01T00:32:48.881Z,20.02
2018-09-01T00:33:48.865Z,20.00
2018-09-01T00:34:48.853Z,19.95
2018-09-01T00:35:48.866Z,19.97
2018-09-01T00:36:48.833Z,19.94
2018-09-01T00:37:48.820Z,19.90
2018-09-01T00:38:48.808Z,19.89
2018-09-01T00:39:48.797Z,19.94
2018-09-01T00:40:48.812Z,19.97
2018-09-01T00:41:48.775Z,19.98
2018-09-01T00:42:48.764Z,19.90
2018-09-01T00:43:48.751Z,19.83
2018-09-01T00:44:48.741Z,19.83
2018-09-01T00:45:48.755Z,19.86
2018-09-01T00:46:48.719Z,19.86
2018-09-01T00:47:48.711Z,19.90
2018-09-01T00:48:48.695Z,19.87
2018-09-01T00:49:48.685Z,19.86
2018-09-01T00:50:48.699Z,19.87
2018-09-01T00:51:48.667Z,19.89
2018-09-01T00:52:48.650Z,19.87
2018-09-01T00:53:48.640Z,19.87
2018-09-01T00:54:48.628Z,19.87
2018-09-01T00:55:48.645Z,19.92
2018-09-01T00:56:48.607Z,19.92
2018-09-01T00:57:48.597Z,19.86
2018-09-01T00:58:48.585Z,19.95
2018-09-01T00:59:48.573Z,19.85
2018-09-01T01:00:48.591Z,19.85
2018-09-01T01:01:48.550Z,19.85
2018-09-01T01:02:48.540Z,19.90
2018-09-01T01:03:48.530Z,19.85
2018-09-01T01:04:48.518Z,19.87
2018-09-01T01:05:48.531Z,19.85
2018-09-01T01:06:48.495Z,19.85
2018-09-01T01:07:48.486Z,19.85
2018-09-01T01:08:48.474Z,19.79
2018-09-01T01:09:48.464Z,19.86
2018-09-01T01:10:48.479Z,19.80
2018-09-01T01:11:48.439Z,19.82
2018-09-01T01:12:48.429Z,19.83
2018-09-01T01:13:48.418Z,19.80
2018-09-01T01:14:48.407Z,19.75
2018-09-01T01:15:48.421Z,19.71
2018-09-01T01:16:48.385Z,19.72
2018-09-01T01:17:48.375Z,19.70
2018-09-01T01:18:48.362Z,19.72
2018-09-01T01:19:48.351Z,19.75
2018-09-01T01:20:48.365Z,19.71
2018-09-01T01:21:48.328Z,19.70
2018-09-01T01:22:48.320Z,19.76
2018-09-01T01:23:48.307Z,19.72
2018-09-01T01:24:48.297Z,19.76
2018-09-01T01:25:48.313Z,19.76
2018-09-01T01:26:48.277Z,19.72
2018-09-01T01:27:48.262Z,19.67
2018-09-01T01:28:48.255Z,19.57
2018-09-01T01:29:48.240Z,19.62
2018-09-01T01:30:48.255Z,19.72
2018-09-01T01:31:48.217Z,19.72
2018-09-01T01:32:48.205Z,19.58
2018-09-01T01:33:48.196Z,19.62
2018-09-01T01:34:48.187Z,19.57
2018-09-01T01:35:48.200Z,19.61
2018-09-01T01:36:48.160Z,19.61
2018-09-01T01:37:48.151Z,19.55
2018-09-01T01:38:48.140Z,19.61
2018-09-01T01:39:48.130Z,19.58
2018-09-01T01:40:48.143Z,19.55
2018-09-01T01:41:48.108Z,19.60
2018-09-01T01:42:48.099Z,19.61
2018-09-01T01:43:48.085Z,19.60
2018-09-01T01:44:48.074Z,19.47
2018-09-01T01:45:48.086Z,19.49
2018-09-01T01:46:48.053Z,19.46
2018-09-01T01:47:48.043Z,19.49
2018-09-01T01:48:48.029Z,19.60
2018-09-01T01:49:48.017Z,19.61
2018-09-01T01:50:48.033Z,19.58
2018-09-01T01:51:47.996Z,19.49
2018-09-01T01:52:47.983Z,19.49
2018-09-01T01:53:47.975Z,19.52
2018-09-01T01:54:47.963Z,19.49
2018-09-01T01:55:47.977Z,19.55
2018-09-01T01:56:47.956Z,19.55
2018-09-01T01:57:47.929Z,19.52
2018-09-01T01:58:47.918Z,19.52
2018-09-01T01:59:47.907Z,19.49
2018-09-01T02:00:47.919Z,19.52
2018-09-01T02:01:47.945Z,19.52
2018-09-01T02:02:47.872Z,19.50
2018-09-01T02:03:47.862Z,19.52
2018-09-01T02:04:47.886Z,19.47
2018-09-01T02:05:47.867Z,19.55
2018-09-01T02:06:47.829Z,19.50
2018-09-01T02:07:47.818Z,19.50
2018-09-01T02:08:47.807Z,19.53
2018-09-01T02:09:47.795Z,19.58
2018-09-01T02:10:47.791Z,19.53
2018-09-01T02:11:47.799Z,19.49
2018-09-01T02:12:47.762Z,19.50
2018-09-01T02:13:47.753Z,19.46
2018-09-01T02:14:47.740Z,19.47
2018-09-01T02:15:47.731Z,19.47
2018-09-01T02:16:47.742Z,19.46
2018-09-01T02:17:47.707Z,19.52
2018-09-01T02:18:47.696Z,19.45
2018-09-01T02:19:47.689Z,19.43
2018-09-01T02:20:47.675Z,19.52
2018-09-01T02:21:47.688Z,19.46
2018-09-01T02:22:47.651Z,19.45
2018-09-01T02:23:47.639Z,19.45
2018-09-01T02:24:47.629Z,19.47
2018-09-01T02:25:47.620Z,19.45
2018-09-01T02:26:47.633Z,19.49
2018-09-01T02:27:47.596Z,19.50
2018-09-01T02:28:47.584Z,19.46
2018-09-01T02:29:47.573Z,19.45
2018-09-01T02:30:47.561Z,19.45
2018-09-01T02:31:47.576Z,19.40
2018-09-01T02:32:47.540Z,19.46
2018-09-01T02:33:47.531Z,19.43
2018-09-01T02:34:47.522Z,19.45
2018-09-01T02:35:47.506Z,19.42
2018-09-01T02:36:47.521Z,19.43
2018-09-01T02:37:47.483Z,19.43
2018-09-01T02:38:47.471Z,19.47
2018-09-01T02:39:47.462Z,19.47
2018-09-01T02:40:47.452Z,19.43
2018-09-01T02:41:47.464Z,19.42
2018-09-01T02:42:47.429Z,19.49
2018-09-01T02:43:47.419Z,19.42
2018-09-01T02:44:47.414Z,19.47
2018-09-01T02:45:47.395Z,19.40
2018-09-01T02:46:47.408Z,19.43
2018-09-01T02:47:47.373Z,19.49
2018-09-01T02:48:47.361Z,19.45
2018-09-01T02:49:47.349Z,19.42
2018-09-01T02:50:47.339Z,19.35
2018-09-01T02:51:47.354Z,19.45
2018-09-01T02:52:47.319Z,19.43
2018-09-01T02:53:47.310Z,19.49
2018-09-01T02:54:47.294Z,19.43
2018-09-01T02:55:47.283Z,19.43
2018-09-01T02:56:47.297Z,19.43
2018-09-01T02:57:47.275Z,19.38
2018-09-01T02:58:47.248Z,19.47
2018-09-01T02:59:47.239Z,19.38
2018-09-01T03:00:47.226Z,19.40
2018-09-01T03:01:47.243Z,19.34
2018-09-01T03:02:47.204Z,19.31
2018-09-01T03:03:47.192Z,19.31
2018-09-01T03:04:47.187Z,19.30
2018-09-01T03:05:47.172Z,19.31
2018-09-01T03:06:47.185Z,19.30
2018-09-01T03:07:47.150Z,19.30
2018-09-01T03:08:47.137Z,19.28
2018-09-01T03:09:47.127Z,19.30
2018-09-01T03:10:47.114Z,19.32
2018-09-01T03:11:47.129Z,19.30
2018-09-01T03:12:47.094Z,19.28
2018-09-01T03:13:47.088Z,19.35
2018-09-01T03:14:47.072Z,19.31
2018-09-01T03:15:47.061Z,19.30
2018-09-01T03:16:47.075Z,19.30
2018-09-01T03:17:47.037Z,19.24
2018-09-01T03:18:47.028Z,19.25
2018-09-01T03:19:47.017Z,19.17
2018-09-01T03:20:47.005Z,19.27
2018-09-01T03:21:47.018Z,19.27
2018-09-01T03:22:46.983Z,19.23
2018-09-01T03:23:46.973Z,19.21
2018-09-01T03:24:46.960Z,19.24
2018-09-01T03:25:46.950Z,19.24
2018-09-01T03:26:46.962Z,19.24
2018-09-01T03:27:46.926Z,19.17
2018-09-01T03:28:46.915Z,19.20
2018-09-01T03:29:46.905Z,19.12
2018-09-01T03:30:46.896Z,19.20
2018-09-01T03:31:46.910Z,19.27
2018-09-01T03:32:46.872Z,19.21
2018-09-01T03:33:46.862Z,19.21
2018-09-01T03:34:46.848Z,19.20
2018-09-01T03:35:46.838Z,19.23
2018-09-01T03:36:46.858Z,19.17
2018-09-01T03:37:46.815Z,19.07
2018-09-01T03:38:46.806Z,19.13
2018-09-01T03:39:46.792Z,19.15
2018-09-01T03:40:46.782Z,19.07
2018-09-01T03:41:46.797Z,19.21
2018-09-01T03:42:46.758Z,19.17
2018-09-01T03:43:46.750Z,19.16
2018-09-01T03:44:46.739Z,19.13
2018-09-01T03:45:46.729Z,19.12
2018-09-01T03:46:46.743Z,19.13
2018-09-01T03:47:46.704Z,19.06
2018-09-01T03:48:46.713Z,19.10
2018-09-01T03:49:46.686Z,19.02
2018-09-01T03:50:46.673Z,19.15
2018-09-01T03:51:46.664Z,19.15
2018-09-01T03:52:46.678Z,19.13
2018-09-01T03:53:46.638Z,19.09
2018-09-01T03:54:46.628Z,19.13
2018-09-01T03:55:46.616Z,19.21
2018-09-01T03:56:46.605Z,19.21
2018-09-01T03:57:46.616Z,19.15
2018-09-01T03:58:46.585Z,19.16
2018-09-01T03:59:46.573Z,19.24
2018-09-01T04:00:46.561Z,19.23
2018-09-01T04:01:46.552Z,19.28
2018-09-01T04:02:46.564Z,19.24
2018-09-01T04:03:46.526Z,19.17
2018-09-01T04:04:46.517Z,19.27
2018-09-01T04:05:46.506Z,19.25
2018-09-01T04:06:46.496Z,19.25
2018-09-01T04:07:46.511Z,19.30
2018-09-01T04:08:46.470Z,19.30
2018-09-01T04:09:46.461Z,19.32
2018-09-01T04:10:46.449Z,19.32
2018-09-01T04:11:46.440Z,19.28
2018-09-01T04:12:46.451Z,19.23
2018-09-01T04:13:46.415Z,19.35
2018-09-01T04:14:46.405Z,19.30
2018-09-01T04:15:46.394Z,19.28
2018-09-01T04:16:46.384Z,19.28
2018-09-01T04:17:46.396Z,19.25
2018-09-01T04:18:46.359Z,19.27
2018-09-01T04:19:46.349Z,19.27
2018-09-01T04:20:46.339Z,19.28
2018-09-01T04:21:46.327Z,19.24
2018-09-01T04:22:46.344Z,19.28
2018-09-01T04:23:46.307Z,19.23
2018-09-01T04:24:46.295Z,19.27
2018-09-01T04:25:46.282Z,19.25
2018-09-01T04:26:46.272Z,19.17
2018-09-01T04:27:46.287Z,19.27
2018-09-01T04:28:46.248Z,19.27
2018-09-01T04:29:46.237Z,19.23
2018-09-01T04:30:46.227Z,19.23
2018-09-01T04:31:46.215Z,19.12
2018-09-01T04:32:46.230Z,19.20
2018-09-01T04:33:46.201Z,19.13
2018-09-01T04:34:46.187Z,19.16
2018-09-01T04:35:46.172Z,19.16
2018-09-01T04:36:46.160Z,19.16
2018-09-01T04:37:46.177Z,19.12
2018-09-01T04:38:46.139Z,19.10
2018-09-01T04:39:46.126Z,19.13
2018-09-01T04:40:46.116Z,19.16
2018-09-01T04:41:46.105Z,19.15
2018-09-01T04:42:46.117Z,19.06
2018-09-01T04:43:46.091Z,19.12
2018-09-01T04:44:46.077Z,19.12
2018-09-01T04:45:46.060Z,19.10
2018-09-01T04:46:46.050Z,19.10
2018-09-01T04:47:46.065Z,19.07
2018-09-01T04:48:46.028Z,19.12
2018-09-01T04:49:46.017Z,19.07
2018-09-01T04:50:46.005Z,19.10
2018-09-01T04:51:45.996Z,19.10
2018-09-01T04:52:46.009Z,19.02
2018-09-01T04:53:45.972Z,19.12
2018-09-01T04:54:45.959Z,19.06
2018-09-01T04:55:45.947Z,19.09
2018-09-01T04:56:45.937Z,19.12
2018-09-01T04:57:45.953Z,19.07
2018-09-01T04:58:45.919Z,19.07
2018-09-01T04:59:45.906Z,19.07
2018-09-01T05:00:46.002Z,19.09
2018-09-01T05:01:45.881Z,19.09
2018-09-01T05:02:45.897Z,19.07
2018-09-01T05:03:45.861Z,19.07
2018-09-01T05:04:45.849Z,19.10
2018-09-01T05:05:45.838Z,19.01
2018-09-01T05:06:45.828Z,19.05
2018-09-01T05:07:45.841Z,19.05
2018-09-01T05:08:45.806Z,19.05
2018-09-01T05:09:45.794Z,19.06
2018-09-01T05:10:45.789Z,19.12
2018-09-01T05:11:45.769Z,19.07
2018-09-01T05:12:45.785Z,19.13
2018-09-01T05:13:45.750Z,19.12
2018-09-01T05:14:45.739Z,19.09
2018-09-01T05:15:45.725Z,19.01
2018-09-01T05:16:45.714Z,19.07
2018-09-01T05:17:45.728Z,19.01
2018-09-01T05:18:45.697Z,19.02
2018-09-01T05:19:45.682Z,19.10
2018-09-01T05:20:45.670Z,18.97
2018-09-01T05:21:45.664Z,19.05
2018-09-01T05:22:45.677Z,19.05
2018-09-01T05:23:45.640Z,19.06
2018-09-01T05:24:45.627Z,19.05
2018-09-01T05:25:45.615Z,19.06
2018-09-01T05:26:45.605Z,19.01
2018-09-01T05:27:45.621Z,19.06
2018-09-01T05:28:45.583Z,19.02
2018-09-01T05:29:45.571Z,19.12
2018-09-01T05:30:45.563Z,19.02
2018-09-01T05:31:45.547Z,19.05
2018-09-01T05:32:45.563Z,19.07
2018-09-01T05:33:45.526Z,18.99
2018-09-01T05:34:45.513Z,19.12
2018-09-01T05:35:45.503Z,19.10
2018-09-01T05:36:45.493Z,19.09
2018-09-01T05:37:45.484Z,19.09
2018-09-01T05:38:45.494Z,19.06
2018-09-01T05:39:45.457Z,19.02
2018-09-01T05:40:45.447Z,19.15
2018-09-01T05:41:45.436Z,19.12
2018-09-01T05:42:45.429Z,19.12
2018-09-01T05:43:45.488Z,19.15
2018-09-01T05:44:45.403Z,19.12
2018-09-01T05:45:45.392Z,19.13
2018-09-01T05:46:45.383Z,19.12
2018-09-01T05:47:45.372Z,19.17
2018-09-01T05:48:45.382Z,19.13
2018-09-01T05:49:45.349Z,19.24
2018-09-01T05:50:45.394Z,19.24
2018-09-01T05:51:45.325Z,19.27
2018-09-01T05:52:45.316Z,19.23
2018-09-01T05:53:45.328Z,19.23
2018-09-01T05:54:45.293Z,19.23
2018-09-01T05:55:45.282Z,19.23
2018-09-01T05:56:45.271Z,19.20
2018-09-01T05:57:45.259Z,19.23
2018-09-01T05:58:45.272Z,19.24
2018-09-01T05:59:45.237Z,19.25
2018-09-01T06:00:45.228Z,19.32
2018-09-01T06:01:45.222Z,19.25
2018-09-01T06:02:45.206Z,19.28
2018-09-01T06:03:45.215Z,19.28
2018-09-01T06:04:45.184Z,19.34
2018-09-01T06:05:45.185Z,19.42
2018-09-01T06:06:45.159Z,19.43
2018-09-01T06:07:45.148Z,19.46
2018-09-01T06:08:45.166Z,19.46
2018-09-01T06:09:45.127Z,19.42
2018-09-01T06:10:45.113Z,19.45
2018-09-01T06:11:45.103Z,19.43
2018-09-01T06:12:45.094Z,19.46
2018-09-01T06:13:45.107Z,19.50
2018-09-01T06:14:45.072Z,19.49
2018-09-01T06:15:45.060Z,19.47
2018-09-01T06:16:45.047Z,19.49
2018-09-01T06:17:45.091Z,19.47
2018-09-01T06:18:45.053Z,19.53
2018-09-01T06:19:45.014Z,19.53
2018-09-01T06:20:45.008Z,19.55
2018-09-01T06:21:44.994Z,19.50
2018-09-01T06:22:44.981Z,19.52
2018-09-01T06:23:45.003Z,19.60
2018-09-01T06:24:44.964Z,19.58
2018-09-01T06:25:44.947Z,19.60
2018-09-01T06:26:44.937Z,19.61
2018-09-01T06:27:44.926Z,19.64
2018-09-01T06:28:44.939Z,19.67
2018-09-01T06:29:44.903Z,19.70
2018-09-01T06:30:44.897Z,19.64
2018-09-01T06:31:44.883Z,19.75
2018-09-01T06:32:44.876Z,19.71
2018-09-01T06:33:44.885Z,19.75
2018-09-01T06:34:44.848Z,19.76
2018-09-01T06:35:44.836Z,19.71
2018-09-01T06:36:44.828Z,19.75
2018-09-01T06:37:44.935Z,19.75
2018-09-01T06:38:44.827Z,19.78
2018-09-01T06:39:44.790Z,19.75
2018-09-01T06:40:44.782Z,19.76
2018-09-01T06:41:44.768Z,19.82
2018-09-01T06:42:44.757Z,19.79
2018-09-01T06:43:44.771Z,19.80
2018-09-01T06:44:44.741Z,19.85
2018-09-01T06:45:44.725Z,19.86
2018-09-01T06:46:44.713Z,19.94
2018-09-01T06:47:44.703Z,19.92
2018-09-01T06:48:44.716Z,19.87
2018-09-01T06:49:44.681Z,19.79
2018-09-01T06:50:44.669Z,19.87
2018-09-01T06:51:44.659Z,19.87
2018-09-01T06:52:44.649Z,19.98
2018-09-01T06:53:44.661Z,19.92
2018-09-01T06:54:44.624Z,19.94
2018-09-01T06:55:44.613Z,20.02
2018-09-01T06:56:44.603Z,20.05
2018-09-01T06:57:44.591Z,20.05
2018-09-01T06:58:44.605Z,20.05
2018-09-01T06:59:44.570Z,20.00
2018-09-01T07:00:44.558Z,20.05
2018-09-01T07:01:44.544Z,20.15
2018-09-01T07:02:44.536Z,20.04
2018-09-01T07:03:44.549Z,20.13
2018-09-01T07:04:44.512Z,20.17
2018-09-01T07:05:44.502Z,20.17
2018-09-01T07:06:44.489Z,20.13
2018-09-01T07:07:44.480Z,20.25
2018-09-01T07:08:44.526Z,20.16
2018-09-01T07:09:44.457Z,20.15
2018-09-01T07:10:44.449Z,20.20
2018-09-01T07:11:44.438Z,20.23
2018-09-01T07:12:44.422Z,20.23
2018-09-01T07:13:44.437Z,20.26
2018-09-01T07:14:44.400Z,20.22
2018-09-01T07:15:44.391Z,20.31
2018-09-01T07:16:44.381Z,20.27
2018-09-01T07:17:44.367Z,20.26
2018-09-01T07:18:44.357Z,20.25
2018-09-01T07:19:44.368Z,20.35
2018-09-01T07:20:44.336Z,20.33
2018-09-01T07:21:44.325Z,20.31
2018-09-01T07:22:44.313Z,20.40
2018-09-01T07:23:44.303Z,20.37
2018-09-01T07:24:44.315Z,20.30
2018-09-01T07:25:44.280Z,20.44
2018-09-01T07:26:44.268Z,20.34
2018-09-01T07:27:44.255Z,20.41
2018-09-01T07:28:44.246Z,20.31
2018-09-01T07:29:44.260Z,20.30
2018-09-01T07:30:44.363Z,20.31
2018-09-01T07:31:44.210Z,20.33
2018-09-01T07:32:44.199Z,20.42
2018-09-01T07:33:44.190Z,20.44
2018-09-01T07:34:44.205Z,20.41
2018-09-01T07:35:44.167Z,20.41
2018-09-01T07:36:44.153Z,20.42
2018-09-01T07:37:44.144Z,20.51
2018-09-01T07:38:44.135Z,20.42
2018-09-01T07:39:44.147Z,20.44
2018-09-01T07:40:44.109Z,20.48
2018-09-01T07:41:44.099Z,20.53
2018-09-01T07:42:44.093Z,20.54
2018-09-01T07:43:44.082Z,20.50
2018-09-01T07:44:44.091Z,20.53
2018-09-01T07:45:44.056Z,20.57
2018-09-01T07:46:44.045Z,20.54
2018-09-01T07:47:44.032Z,20.66
2018-09-01T07:48:44.024Z,20.61
2018-09-01T07:49:44.034Z,20.60
2018-09-01T07:50:43.998Z,20.68
2018-09-01T07:51:43.989Z,20.66
2018-09-01T07:52:43.979Z,20.66
2018-09-01T07:53:43.965Z,20.64
2018-09-01T07:54:44.003Z,20.72
2018-09-01T07:55:43.944Z,20.75
2018-09-01T07:56:43.933Z,20.76
2018-09-01T07:57:43.924Z,20.73
2018-09-01T07:58:43.909Z,20.69
2018-09-01T07:59:43.924Z,20.73
2018-09-01T08:00:43.888Z,20.69
2018-09-01T08:01:43.879Z,20.75
2018-09-01T08:02:43.865Z,20.63
2018-09-01T08:03:43.854Z,20.72
2018-09-01T08:04:43.870Z,20.75
2018-09-01T08:05:43.831Z,20.75
2018-09-01T08:06:43.822Z,20.76
2018-09-01T08:07:43.810Z,20.73
2018-09-01T08:08:43.799Z,20.66
2018-09-01T08:09:43.812Z,20.78
2018-09-01T08:10:43.777Z,20.71
2018-09-01T08:11:43.766Z,20.71
2018-09-01T08:12:43.753Z,20.71
2018-09-01T08:13:43.810Z,20.76
2018-09-01T08:14:43.828Z,20.83
2018-09-01T08:15:43.720Z,20.85
2018-09-01T08:16:43.710Z,20.81
2018-09-01T08:17:43.699Z,20.83
2018-09-01T08:18:43.687Z,20.81
2018-09-01T08:19:43.702Z,21.00
2018-09-01T08:20:43.665Z,20.83
2018-09-01T08:21:43.653Z,20.91
2018-09-01T08:22:43.642Z,20.94
2018-09-01T08:23:43.631Z,20.94
2018-09-01T08:24:43.646Z,20.91
2018-09-01T08:25:43.607Z,20.78
2018-09-01T08:26:43.596Z,20.85
2018-09-01T08:27:43.586Z,20.85
2018-09-01T08:28:43.577Z,20.87
2018-09-01T08:29:43.590Z,20.82
2018-09-01T08:30:43.555Z,20.82
2018-09-01T08:31:43.542Z,20.88
2018-09-01T08:32:43.532Z,20.87
2018-09-01T08:33:43.629Z,20.76
2018-09-01T08:34:43.534Z,20.93
2018-09-01T08:35:43.497Z,20.81
2018-09-01T08:36:43.486Z,20.90
2018-09-01T08:37:43.481Z,20.96
2018-09-01T08:38:43.465Z,20.93
2018-09-01T08:39:43.475Z,20.91
2018-09-01T08:40:43.440Z,20.87
2018-09-01T08:41:43.428Z,21.00
2018-09-01T08:42:43.418Z,21.00
2018-09-01T08:43:43.407Z,20.98
2018-09-01T08:44:43.421Z,20.93
2018-09-01T08:45:43.384Z,20.94
2018-09-01T08:46:43.375Z,20.98
2018-09-01T08:47:43.362Z,20.98
2018-09-01T08:48:43.352Z,20.91
2018-09-01T08:49:43.368Z,21.03
2018-09-01T08:50:43.329Z,20.98
2018-09-01T08:51:43.318Z,20.97
2018-09-01T08:52:43.307Z,21.05
2018-09-01T08:53:43.296Z,21.08
2018-09-01T08:54:43.307Z,21.18
2018-09-01T08:55:43.275Z,21.12
2018-09-01T08:56:43.321Z,21.18
2018-09-01T08:57:43.252Z,21.09
2018-09-01T08:58:43.244Z,21.09
2018-09-01T08:59:43.254Z,21.15
2018-09-01T09:00:43.218Z,21.11
2018-09-01T09:01:43.207Z,21.16
2018-09-01T09:02:43.194Z,21.18
2018-09-01T09:03:43.184Z,21.16
2018-09-01T09:04:43.179Z,21.19
2018-09-01T09:05:43.339Z,21.13
2018-09-01T09:06:43.151Z,21.16
2018-09-01T09:07:43.140Z,21.26
2018-09-01T09:08:43.130Z,21.21
2018-09-01T09:09:43.120Z,21.16
2018-09-01T09:10:43.132Z,21.24
2018-09-01T09:11:43.198Z,21.26
2018-09-01T09:12:43.082Z,21.30
2018-09-01T09:13:43.081Z,21.31
2018-09-01T09:14:43.062Z,21.31
2018-09-01T09:15:43.074Z,21.31
2018-09-01T09:16:43.040Z,21.31
2018-09-01T09:17:43.033Z,21.33
2018-09-01T09:18:43.055Z,21.31
2018-09-01T09:19:43.008Z,21.30
2018-09-01T09:20:43.023Z,21.34
2018-09-01T09:21:42.982Z,21.40
2018-09-01T09:22:42.976Z,21.36
2018-09-01T09:23:42.963Z,21.28
2018-09-01T09:24:42.949Z,21.34
2018-09-01T09:25:42.965Z,21.27
2018-09-01T09:26:42.928Z,21.37
2018-09-01T09:27:42.916Z,21.36
2018-09-01T09:28:42.908Z,21.34
2018-09-01T09:29:42.902Z,21.40
2018-09-01T09:30:42.909Z,21.45
2018-09-01T09:31:42.879Z,21.46
2018-09-01T09:32:42.865Z,21.40
2018-09-01T09:33:42.852Z,21.46
2018-09-01T09:34:42.838Z,21.46
2018-09-01T09:35:42.858Z,21.42
2018-09-01T09:36:42.818Z,21.49
2018-09-01T09:37:42.807Z,21.46
2018-09-01T09:38:42.796Z,21.55
2018-09-01T09:39:42.783Z,21.51
2018-09-01T09:40:42.798Z,21.53
2018-09-01T09:41:42.765Z,21.45
2018-09-01T09:42:42.751Z,21.45
2018-09-01T09:43:42.740Z,21.53
2018-09-01T09:44:42.731Z,21.52
2018-09-01T09:45:42.741Z,21.61
2018-09-01T09:46:42.707Z,21.59
2018-09-01T09:47:42.697Z,21.63
2018-09-01T09:48:42.684Z,21.66
2018-09-01T09:49:42.673Z,21.67
2018-09-01T09:50:42.684Z,21.63
2018-09-01T09:51:42.653Z,21.59
2018-09-01T09:52:42.642Z,21.63
2018-09-01T09:53:42.630Z,21.53
2018-09-01T09:54:42.622Z,21.59
2018-09-01T09:55:42.629Z,21.58
2018-09-01T09:56:42.595Z,21.55
2018-09-01T09:57:42.585Z,21.55
2018-09-01T09:58:42.574Z,21.56
2018-09-01T09:59:42.566Z,21.59
2018-09-01T10:00:42.575Z,21.64
2018-09-01T10:01:42.540Z,21.61
2018-09-01T10:02:42.528Z,21.61
2018-09-01T10:03:42.516Z,21.58
2018-09-01T10:04:42.506Z,21.61
2018-09-01T10:05:42.643Z,21.63
2018-09-01T10:06:42.483Z,21.64
2018-09-01T10:07:42.474Z,21.68
2018-09-01T10:08:42.462Z,21.66
2018-09-01T10:09:42.454Z,21.73
2018-09-01T10:10:42.465Z,21.73
2018-09-01T10:11:42.427Z,21.71
2018-09-01T10:12:42.418Z,21.83
2018-09-01T10:13:42.405Z,21.75
2018-09-01T10:14:42.396Z,21.83
2018-09-01T10:15:42.454Z,21.85
2018-09-01T10:16:42.375Z,21.82
2018-09-01T10:17:42.361Z,21.85
2018-09-01T10:18:42.352Z,21.83
2018-09-01T10:19:42.340Z,21.90
2018-09-01T10:20:42.353Z,21.91
2018-09-01T10:21:42.318Z,21.91
2018-09-01T10:22:42.308Z,22.04
2018-09-01T10:23:42.297Z,21.96
2018-09-01T10:24:42.286Z,21.93
2018-09-01T10:25:42.300Z,21.96
2018-09-01T10:26:42.264Z,21.98
2018-09-01T10:27:42.252Z,22.04
2018-09-01T10:28:42.240Z,22.12
2018-09-01T10:29:42.228Z,22.17
2018-09-01T10:30:42.242Z,22.08
2018-09-01T10:31:42.208Z,22.23
2018-09-01T10:32:42.199Z,22.23
2018-09-01T10:33:42.185Z,22.15
2018-09-01T10:34:42.175Z,22.17
2018-09-01T10:35:42.189Z,22.21
2018-09-01T10:36:42.151Z,22.27
2018-09-01T10:37:42.141Z,22.26
2018-09-01T10:38:42.129Z,22.29
2018-09-01T10:39:42.124Z,22.23
2018-09-01T10:40:42.133Z,22.27
2018-09-01T10:41:42.097Z,22.27
2018-09-01T10:42:42.088Z,22.15
2018-09-01T10:43:42.075Z,22.24
2018-09-01T10:44:42.064Z,22.20
2018-09-01T10:45:42.055Z,22.30
2018-09-01T10:46:42.067Z,22.23
2018-09-01T10:47:42.031Z,22.20
2018-09-01T10:48:42.039Z,22.20
2018-09-01T10:49:42.009Z,22.21
2018-09-01T10:50:42.000Z,22.29
2018-09-01T10:51:42.011Z,22.24
2018-09-01T10:52:41.976Z,22.35
2018-09-01T10:53:41.963Z,22.36
2018-09-01T10:54:41.953Z,22.35
2018-09-01T10:55:41.942Z,22.41
2018-09-01T10:56:41.956Z,22.45
2018-09-01T10:57:41.920Z,22.52
2018-09-01T10:58:41.908Z,22.48
2018-09-01T10:59:42.072Z,22.46
2018-09-01T11:00:41.886Z,22.42
2018-09-01T11:01:41.903Z,22.46
2018-09-01T11:02:41.864Z,22.56
2018-09-01T11:03:41.856Z,22.56
2018-09-01T11:04:41.842Z,22.67
2018-09-01T11:05:41.873Z,22.72
2018-09-01T11:06:41.846Z,22.70
2018-09-01T11:07:41.807Z,22.75
2018-09-01T11:08:41.798Z,22.81
2018-09-01T11:09:41.785Z,22.88
2018-09-01T11:10:41.776Z,22.84
2018-09-01T11:11:41.789Z,22.82
2018-09-01T11:12:41.752Z,22.74
2018-09-01T11:13:41.757Z,22.75
2018-09-01T11:14:41.730Z,22.84
2018-09-01T11:15:41.720Z,22.78
2018-09-01T11:16:41.733Z,22.76
2018-09-01T11:17:41.715Z,22.74
2018-09-01T11:18:41.687Z,22.75
2018-09-01T11:19:41.678Z,22.82
2018-09-01T11:20:41.673Z,22.76
2018-09-01T11:21:41.678Z,22.85
2018-09-01T11:22:41.642Z,22.86
2018-09-01T11:23:41.629Z,22.88
2018-09-01T11:24:41.620Z,22.82
2018-09-01T11:25:41.609Z,22.86
2018-09-01T11:26:41.624Z,22.91
2018-09-01T11:27:41.630Z,22.96
2018-09-01T11:28:41.577Z,23.01
2018-09-01T11:29:41.564Z,23.06
2018-09-01T11:30:41.554Z,23.09
2018-09-01T11:31:41.567Z,23.07
2018-09-01T11:32:41.533Z,22.96
2018-09-01T11:33:41.541Z,23.00
2018-09-01T11:34:41.509Z,22.94
2018-09-01T11:35:41.497Z,23.07
2018-09-01T11:36:41.517Z,22.97
2018-09-01T11:37:41.477Z,22.97
2018-09-01T11:38:41.462Z,22.97
2018-09-01T11:39:41.453Z,22.86
2018-09-01T11:40:41.441Z,22.96
2018-09-01T11:41:41.455Z,23.00
2018-09-01T11:42:41.594Z,23.01
2018-09-01T11:43:41.407Z,23.21
2018-09-01T11:44:41.398Z,23.16
2018-09-01T11:45:41.385Z,23.18
2018-09-01T11:46:41.402Z,23.23
2018-09-01T11:47:41.366Z,23.32
2018-09-01T11:48:41.397Z,23.31
2018-09-01T11:49:41.365Z,23.47
2018-09-01T11:50:41.331Z,23.38
2018-09-01T11:51:41.345Z,23.50
2018-09-01T11:52:41.310Z,23.56
2018-09-01T11:53:41.405Z,23.60
2018-09-01T11:54:41.288Z,23.63
2018-09-01T11:55:41.276Z,23.68
2018-09-01T11:56:41.289Z,23.77
2018-09-01T11:57:41.253Z,23.81
2018-09-01T11:58:41.301Z,23.79
2018-09-01T11:59:41.233Z,23.89
2018-09-01T12:00:41.221Z,23.92
2018-09-01T12:01:41.232Z,23.79
2018-09-01T12:02:41.196Z,23.79
2018-09-01T12:03:41.186Z,23.81
2018-09-01T12:04:41.176Z,23.71
2018-09-01T12:05:41.163Z,23.69
2018-09-01T12:06:41.179Z,23.69
2018-09-01T12:07:41.140Z,23.79
2018-09-01T12:08:41.163Z,23.69
2018-09-01T12:09:41.120Z,23.78
2018-09-01T12:10:41.109Z,23.86
2018-09-01T12:11:41.126Z,23.79
2018-09-01T12:12:41.086Z,23.93
2018-09-01T12:13:41.076Z,23.84
2018-09-01T12:14:41.066Z,23.92
2018-09-01T12:15:41.057Z,24.00
2018-09-01T12:16:41.066Z,24.09
2018-09-01T12:17:41.032Z,24.14
2018-09-01T12:18:41.021Z,24.18
2018-09-01T12:19:41.009Z,24.27
2018-09-01T12:20:40.996Z,24.27
2018-09-01T12:21:41.012Z,24.29
2018-09-01T12:22:40.978Z,24.44
2018-09-01T12:23:40.965Z,24.37
2018-09-01T12:24:40.957Z,24.39
2018-09-01T12:25:40.941Z,24.41
2018-09-01T12:26:40.934Z,24.44
2018-09-01T12:27:40.946Z,24.34
2018-09-01T12:28:40.918Z,24.33
2018-09-01T12:29:40.898Z,24.26
2018-09-01T12:30:40.888Z,24.18
2018-09-01T12:31:40.882Z,24.16
2018-09-01T12:32:40.892Z,24.06
2018-09-01T12:33:40.856Z,24.33
2018-09-01T12:34:40.845Z,24.30
2018-09-01T12:35:40.835Z,24.46
2018-09-01T12:36:40.823Z,24.56
2018-09-01T12:37:40.844Z,24.56
2018-09-01T12:38:40.802Z,24.53
2018-09-01T12:39:40.790Z,24.64
2018-09-01T12:40:40.779Z,24.68
2018-09-01T12:41:40.769Z,24.80
2018-09-01T12:42:40.781Z,24.74
2018-09-01T12:43:40.748Z,24.75
2018-09-01T12:44:40.734Z,24.92
2018-09-01T12:45:40.723Z,24.97
2018-09-01T12:46:40.713Z,25.04
2018-09-01T12:47:40.726Z,25.05
2018-09-01T12:48:40.691Z,25.16
2018-09-01T12:49:40.681Z,25.27
2018-09-01T12:50:40.668Z,25.39
2018-09-01T12:51:40.659Z,25.41
2018-09-01T12:52:40.673Z,25.45